KEAT/EAT METAR and TAF weather

Enter ICAO airport designator
Station Type Date Time Source
KEAT METAR 2019/04/18 09:55 UTC NOAA

KEAT 180955Z AUTO 33007KT 10SM CLR 12/02 A3022 RMK AO2 SLP230 T01220017 TSNO


Station Type Date Time Source
KEAT Decoded METAR 2019/04/18 09:55 UTC NOAA

WENATCHEE PANGBORN MEMO, WA, United States (KEAT) 47-24N 120-12W 377M
Apr 18, 2019 - 05:55 AM EDT / 2019.04.18 0955 UTC
Wind: from the NNW (330 degrees) at 8 MPH (7 KT):0
Visibility: 10 mile(s):0
Sky conditions: clear
Temperature: 54.0 F (12.2 C)
Dew Point: 35.1 F (1.7 C)
Relative Humidity: 48%
Pressure (altimeter): 30.22 in. Hg (1023 hPa)
ob: KEAT 180955Z AUTO 33007KT 10SM CLR 12/02 A3022 RMK AO2 SLP230 T01220017 TSNO
cycle: 10

Station Type Date Time Source
KEAT TAF 2019/04/18 06:42 UTC NOAA

TAF KEAT 180539Z 1806/1906 31012KT P6SM SCT200
FM181000 31005KT P6SM SCT050 BKN100
FM181800 15003KT P6SM BKN100

Example: see airport list